Time;durP1;ratioP1;P1;durP2;ratioP2;P2;SDS_P1;SDS_P2;PMS_P1;PMS_P2;Temp;Humidity;BMP_temperature;BMP_pressure;BME280_temperature;BME280_humidity;BME280_pressure;Samples;Min_cycle;Max_cycle;Signal;HPM_P1;HPM_P2
2023/02/07 00:00:03;;;;;;;41.78;24.08;;;1.30;87.60;;;;;;5038891;28;20384;-77
2023/02/07 00:02:29;;;;;;;39.35;25.17;;;1.30;87.60;;;;;;5056628;28;20162;-79
2023/02/07 00:04:55;;;;;;;38.15;23.98;;;1.20;87.50;;;;;;5056084;28;20044;-77
2023/02/07 00:07:21;;;;;;;36.85;23.13;;;1.20;87.50;;;;;;5056000;28;20479;-76
2023/02/07 00:09:46;;;;;;;35.53;22.42;;;1.20;87.60;;;;;;5036425;28;20024;-75
2023/02/07 00:12:12;;;;;;;35.83;23.42;;;1.20;87.70;;;;;;5057843;28;20046;-73
2023/02/07 00:14:38;;;;;;;41.88;23.30;;;1.20;87.80;;;;;;5039432;28;20280;-74
2023/02/07 00:17:04;;;;;;;38.17;24.33;;;1.10;87.90;;;;;;5060078;28;20060;-75
2023/02/07 00:19:29;;;;;;;36.63;24.15;;;1.10;88.10;;;;;;5060835;28;20021;-73
2023/02/07 00:21:55;;;;;;;39.97;24.52;;;1.10;88.20;;;;;;5059421;28;20072;-76
2023/02/07 00:24:21;;;;;;;44.47;24.10;;;1.20;88.50;;;;;;5058242;28;20056;-75
2023/02/07 00:26:47;;;;;;;36.17;24.15;;;1.20;88.80;;;;;;5059209;28;20036;-74
2023/02/07 00:29:13;;;;;;;40.25;24.50;;;1.30;88.80;;;;;;5041816;28;20052;-75
2023/02/07 00:31:39;;;;;;;40.50;23.02;;;1.30;89.00;;;;;;5058679;28;20051;-73
2023/02/07 00:34:06;;;;;;;39.22;23.73;;;1.30;89.10;;;;;;5042552;28;20031;-76
2023/02/07 00:36:34;;;;;;;39.45;24.73;;;1.30;89.20;;;;;;5060069;28;20098;-74
2023/02/07 00:39:04;;;;;;;42.85;25.33;;;1.30;89.30;;;;;;5040280;28;20020;-73
2023/02/07 00:41:30;;;;;;;38.30;23.90;;;1.30;89.60;;;;;;5040243;28;20040;-76
2023/02/07 00:43:56;;;;;;;44.58;26.25;;;1.40;89.70;;;;;;5039270;28;20078;-73
2023/02/07 00:46:23;;;;;;;41.20;24.10;;;1.40;89.90;;;;;;5040444;28;20036;-74
2023/02/07 00:48:49;;;;;;;39.60;24.02;;;1.40;89.90;;;;;;5039602;28;20028;-74
2023/02/07 00:51:15;;;;;;;37.88;23.98;;;1.40;89.90;;;;;;5039750;28;20059;-73
2023/02/07 00:53:43;;;;;;;38.67;25.67;;;1.40;89.90;;;;;;5056759;28;20484;-75
2023/02/07 00:56:09;;;;;;;41.40;24.20;;;1.30;90.00;;;;;;5057751;28;20115;-77
2023/02/07 00:58:35;;;;;;;42.63;24.52;;;1.30;89.90;;;;;;5059428;28;20028;-74
2023/02/07 01:01:00;;;;;;;36.50;22.63;;;1.20;90.00;;;;;;5040601;28;20090;-73
2023/02/07 01:03:26;;;;;;;44.05;22.73;;;1.20;90.00;;;;;;5045618;28;20028;-75
2023/02/07 01:05:52;;;;;;;39.35;23.95;;;1.10;90.00;;;;;;5056233;28;20143;-82
2023/02/07 01:08:18;;;;;;;37.30;25.27;;;1.10;90.00;;;;;;5038651;28;20031;-74
2023/02/07 01:10:44;;;;;;;35.13;22.23;;;1.00;90.10;;;;;;5057834;28;20047;-73
2023/02/07 01:13:11;;;;;;;37.50;23.27;;;1.00;90.10;;;;;;5040537;28;20652;-75
2023/02/07 01:15:39;;;;;;;39.10;23.80;;;1.00;90.10;;;;;;5056459;28;20345;-75
2023/02/07 01:18:05;;;;;;;41.83;24.40;;;1.10;90.10;;;;;;5055614;28;20112;-75
2023/02/07 01:20:31;;;;;;;43.25;25.88;;;1.10;90.10;;;;;;5039870;28;20456;-72
2023/02/07 01:22:57;;;;;;;40.15;25.00;;;1.00;90.00;;;;;;5058973;28;20028;-74
2023/02/07 01:25:23;;;;;;;40.63;23.42;;;1.00;90.00;;;;;;5043244;28;20445;-80
2023/02/07 01:27:49;;;;;;;41.90;24.15;;;1.00;90.00;;;;;;5039022;28;20216;-73
2023/02/07 01:30:14;;;;;;;35.60;22.35;;;1.00;90.10;;;;;;5061292;28;20530;-78
2023/02/07 01:32:40;;;;;;;46.17;25.83;;;1.00;90.10;;;;;;5057140;28;20048;-73
2023/02/07 01:35:06;;;;;;;37.72;23.67;;;0.90;90.00;;;;;;5040620;28;20098;-76
2023/02/07 01:37:32;;;;;;;43.03;24.25;;;0.90;90.00;;;;;;5037113;28;20047;-79
2023/02/07 01:39:58;;;;;;;42.50;24.23;;;0.90;90.00;;;;;;5059275;28;20442;-76
2023/02/07 01:42:26;;;;;;;40.67;24.10;;;0.90;90.10;;;;;;5057688;28;20044;-73
2023/02/07 01:45:04;;;;;;;38.10;22.55;;;0.80;90.00;;;;;;5042900;28;20028;-77
2023/02/07 01:47:31;;;;;;;37.40;23.67;;;0.80;90.00;;;;;;5057369;28;20491;-75
2023/02/07 01:49:58;;;;;;;32.55;21.40;;;0.80;90.00;;;;;;5058530;28;20047;-75
2023/02/07 01:52:29;;;;;;;40.42;23.25;;;0.70;89.90;;;;;;5056327;28;20035;-73
2023/02/07 01:55:01;;;;;;;34.35;22.92;;;0.60;89.80;;;;;;5037800;28;20285;-74
2023/02/07 01:57:27;;;;;;;36.20;22.95;;;0.60;89.70;;;;;;5056224;28;20044;-75
2023/02/07 01:59:55;;;;;;;36.92;22.80;;;0.60;89.70;;;;;;5037753;28;20025;-72
2023/02/07 02:02:23;;;;;;;41.47;23.83;;;0.60;89.70;;;;;;5057879;28;20079;-76
2023/02/07 02:04:54;;;;;;;36.35;22.35;;;0.50;89.70;;;;;;5037511;28;20040;-75
2023/02/07 02:07:20;;;;;;;36.85;23.70;;;0.50;89.60;;;;;;5057830;28;20066;-75
2023/02/07 02:09:46;;;;;;;37.92;24.15;;;0.50;89.60;;;;;;5058381;28;21065;-76
2023/02/07 02:12:11;;;;;;;39.05;24.35;;;0.60;89.50;;;;;;5052159;28;20044;-76
2023/02/07 02:15:04;;;;;;;42.15;26.00;;;0.60;89.50;;;;;;5050904;28;20029;-76
2023/02/07 02:18:11;;;;;;;35.50;23.83;;;0.60;89.50;;;;;;5055369;28;20033;-75
2023/02/07 02:20:57;;;;;;;40.63;25.67;;;0.50;89.70;;;;;;4976852;28;20030;-73
2023/02/07 02:23:38;;;;;;;41.30;25.50;;;0.50;89.70;;;;;;5052104;28;20051;-77
2023/02/07 02:26:31;;;;;;;43.00;24.83;;;0.60;89.80;;;;;;5057251;28;20055;-80
2023/02/07 02:29:15;;;;;;;42.03;24.75;;;0.50;89.80;;;;;;5037160;28;20047;-76
2023/02/07 02:31:50;;;;;;;39.67;26.02;;;0.50;89.80;;;;;;5056434;28;20044;-79
2023/02/07 02:34:34;;;;;;;41.38;24.40;;;0.40;89.80;;;;;;5056676;28;20093;-78
2023/02/07 02:37:21;;;;;;;42.55;26.15;;;0.40;89.90;;;;;;5056082;28;20039;-75
2023/02/07 02:39:47;;;;;;;41.38;25.05;;;0.40;89.90;;;;;;5036783;28;20040;-81
2023/02/07 02:42:39;;;;;;;41.33;26.17;;;0.50;90.00;;;;;;5054920;28;20044;-73
2023/02/07 02:45:29;;;;;;;38.30;24.75;;;0.50;90.00;;;;;;5057906;28;20040;-74
2023/02/07 02:47:56;;;;;;;42.40;25.88;;;0.60;90.00;;;;;;5057577;28;20044;-74
2023/02/07 02:50:28;;;;;;;41.35;27.10;;;0.60;90.00;;;;;;5036825;28;20025;-73
2023/02/07 02:52:55;;;;;;;43.95;23.90;;;0.50;90.00;;;;;;5058605;28;20052;-75
2023/02/07 02:55:55;;;;;;;41.83;25.02;;;0.40;90.00;;;;;;5056366;28;20403;-74
2023/02/07 02:58:56;;;;;;;40.63;24.63;;;0.40;90.10;;;;;;5054769;28;20064;-79
2023/02/07 03:01:32;;;;;;;37.53;24.00;;;0.40;90.10;;;;;;5038264;28;20041;-77
2023/02/07 03:04:13;;;;;;;37.90;24.50;;;0.40;90.10;;;;;;5058702;28;20061;-73
2023/02/07 03:06:56;;;;;;;37.83;23.20;;;0.30;90.10;;;;;;5056741;28;20074;-74
2023/02/07 03:09:51;;;;;;;38.72;23.20;;;0.30;90.10;;;;;;5038909;28;20058;-81
2023/02/07 03:12:21;;;;;;;37.50;22.40;;;0.30;90.20;;;;;;5039157;28;20045;-79
2023/02/07 03:14:50;;;;;;;37.33;21.15;;;0.30;90.40;;;;;;5053867;28;20292;-76
2023/02/07 03:17:27;;;;;;;38.67;21.23;;;0.40;90.40;;;;;;5039396;28;20045;-74
2023/02/07 03:20:02;;;;;;;45.80;22.52;;;0.40;90.40;;;;;;5057436;28;20059;-73
2023/02/07 03:22:29;;;;;;;37.20;22.08;;;0.50;90.70;;;;;;5053599;28;20044;-74
2023/02/07 03:24:57;;;;;;;37.20;22.00;;;0.60;90.80;;;;;;5040078;28;20416;-74
2023/02/07 03:27:26;;;;;;;41.95;21.95;;;0.60;90.80;;;;;;5039430;28;20540;-73
2023/02/07 03:29:56;;;;;;;50.75;23.38;;;0.60;90.70;;;;;;5056867;28;20058;-77
2023/02/07 03:32:24;;;;;;;43.10;23.73;;;0.60;90.80;;;;;;5057636;28;20041;-81
2023/02/07 03:34:55;;;;;;;41.08;22.67;;;0.70;91.00;;;;;;5058916;28;20029;-73
2023/02/07 03:37:26;;;;;;;42.95;22.27;;;0.70;91.00;;;;;;5035307;28;20048;-74
2023/02/07 03:39:52;;;;;;;37.25;22.75;;;0.70;91.10;;;;;;5054822;28;20111;-79
2023/02/07 03:42:29;;;;;;;43.47;21.85;;;0.70;91.20;;;;;;5038894;28;20543;-75
2023/02/07 03:44:57;;;;;;;41.25;22.85;;;0.70;91.20;;;;;;5060520;28;20293;-73
2023/02/07 03:47:25;;;;;;;41.92;22.02;;;0.80;91.40;;;;;;5055991;28;20116;-74
2023/02/07 03:49:51;;;;;;;40.20;20.80;;;0.90;91.50;;;;;;5063009;28;20453;-73
2023/02/07 03:52:16;;;;;;;42.28;24.25;;;0.80;91.50;;;;;;5043780;28;20052;-78
2023/02/07 03:54:42;;;;;;;41.92;22.65;;;0.80;91.50;;;;;;5042172;28;20126;-74
2023/02/07 03:57:08;;;;;;;36.58;21.50;;;0.80;91.60;;;;;;5059557;28;20040;-74
2023/02/07 03:59:34;;;;;;;36.75;20.60;;;0.80;91.60;;;;;;5060915;28;20533;-76
2023/02/07 04:02:01;;;;;;;33.50;20.60;;;0.70;91.50;;;;;;5037094;28;20036;-76
2023/02/07 04:04:27;;;;;;;40.45;21.05;;;0.70;91.50;;;;;;5037590;28;20033;-75
2023/02/07 04:06:52;;;;;;;38.25;22.00;;;0.60;91.50;;;;;;5058299;28;20052;-76
2023/02/07 04:09:18;;;;;;;40.58;21.77;;;0.60;91.50;;;;;;5060365;28;20135;-73
2023/02/07 04:11:47;;;;;;;38.10;21.38;;;0.50;91.50;;;;;;5050436;28;20482;-76
2023/02/07 04:14:13;;;;;;;44.58;22.83;;;0.40;91.50;;;;;;5061668;28;20024;-73
2023/02/07 04:16:38;;;;;;;41.75;20.60;;;0.30;91.50;;;;;;5042362;28;20044;-76
2023/02/07 04:19:04;;;;;;;37.53;21.70;;;0.30;91.50;;;;;;5058797;28;20725;-75
2023/02/07 04:21:30;;;;;;;39.72;20.90;;;0.20;91.50;;;;;;5040864;28;20031;-74
2023/02/07 04:23:55;;;;;;;42.30;21.98;;;0.20;91.50;;;;;;5058673;28;20476;-78
2023/02/07 04:26:21;;;;;;;33.28;19.85;;;0.20;91.50;;;;;;5059858;28;20024;-75
2023/02/07 04:28:47;;;;;;;44.30;21.20;;;0.10;91.60;;;;;;5059837;28;20048;-73
2023/02/07 04:31:12;;;;;;;38.50;22.35;;;0.10;91.60;;;;;;5054150;28;20131;-76
2023/02/07 04:33:38;;;;;;;36.58;22.63;;;0.10;91.70;;;;;;5058968;28;20060;-77
2023/02/07 04:36:05;;;;;;;44.75;23.63;;;0.20;91.80;;;;;;5059549;28;20037;-74
2023/02/07 04:38:31;;;;;;;40.15;22.42;;;0.20;91.80;;;;;;5057587;28;20329;-75
2023/02/07 04:41:03;;;;;;;46.83;23.83;;;0.20;91.80;;;;;;5055859;28;20036;-78
2023/02/07 04:43:29;;;;;;;46.47;24.25;;;0.20;91.80;;;;;;5059382;28;20024;-77
2023/02/07 04:45:55;;;;;;;37.80;22.27;;;0.40;92.00;;;;;;5056348;28;20033;-78
2023/02/07 04:48:20;;;;;;;42.03;22.67;;;0.40;91.80;;;;;;5059478;28;20028;-77
2023/02/07 04:50:46;;;;;;;39.58;25.60;;;0.40;91.80;;;;;;5059942;28;20045;-74
2023/02/07 04:53:12;;;;;;;39.47;24.00;;;0.40;91.80;;;;;;5058903;28;20037;-77
2023/02/07 04:55:38;;;;;;;34.40;22.58;;;0.40;91.80;;;;;;5058367;28;20614;-74
2023/02/07 04:58:04;;;;;;;38.08;22.52;;;0.30;91.70;;;;;;5056547;28;20104;-73
2023/02/07 05:00:30;;;;;;;44.40;23.67;;;0.30;91.70;;;;;;5058279;28;20028;-78
2023/02/07 05:02:56;;;;;;;44.42;25.15;;;0.20;91.60;;;;;;5040779;28;20450;-77
2023/02/07 05:05:21;;;;;;;41.42;25.35;;;0.10;91.70;;;;;;5056674;28;20456;-78
2023/02/07 05:07:47;;;;;;;41.85;24.38;;;0.10;91.80;;;;;;5057940;28;20455;-76
2023/02/07 05:10:13;;;;;;;41.88;23.70;;;0.10;91.80;;;;;;5060886;28;20037;-74
2023/02/07 05:12:39;;;;;;;39.45;24.30;;;0.10;91.80;;;;;;5058937;28;20081;-74
2023/02/07 05:15:05;;;;;;;36.10;22.10;;;0.00;91.90;;;;;;5058810;28;20029;-76
2023/02/07 05:17:33;;;;;;;43.03;24.30;;;0.00;91.90;;;;;;5056175;28;20113;-74
2023/02/07 05:20:02;;;;;;;38.72;23.02;;;0.00;92.00;;;;;;5061070;28;20032;-76
2023/02/07 05:22:28;;;;;;;42.10;24.20;;;0.00;92.00;;;;;;5055099;28;20050;-77
2023/02/07 05:24:53;;;;;;;45.70;24.23;;;0.10;92.10;;;;;;5041477;28;20033;-74
2023/02/07 05:27:19;;;;;;;48.03;24.17;;;0.10;92.10;;;;;;5054602;28;21101;-76
2023/02/07 05:29:45;;;;;;;44.75;24.67;;;0.10;92.10;;;;;;5054308;28;20774;-79
2023/02/07 05:34:58;;;;;;;45.25;24.17;;;0.10;92.10;;;;;;5058385;28;20040;-77
2023/02/07 05:37:24;;;;;;;53.35;25.15;;;0.00;92.10;;;;;;5059012;28;20136;-79
2023/02/07 05:39:49;;;;;;;44.15;25.95;;;0.10;92.10;;;;;;5057641;28;20103;-75
2023/02/07 05:42:15;;;;;;;49.15;25.70;;;0.00;92.20;;;;;;5056696;28;20040;-77
2023/02/07 05:44:41;;;;;;;49.53;26.02;;;0.10;92.20;;;;;;5059342;28;20524;-75
2023/02/07 05:47:07;;;;;;;47.00;24.73;;;0.10;92.30;;;;;;5053946;28;20040;-75
2023/02/07 05:49:32;;;;;;;49.92;26.92;;;0.10;92.20;;;;;;5055837;28;20484;-75
2023/02/07 05:51:58;;;;;;;53.83;28.02;;;0.10;92.30;;;;;;5053220;28;20049;-75
2023/02/07 05:54:24;;;;;;;50.80;27.48;;;0.10;92.30;;;;;;5057590;28;20043;-74
2023/02/07 05:56:49;;;;;;;52.67;28.00;;;0.10;92.40;;;;;;5057176;28;20040;-76
2023/02/07 05:59:15;;;;;;;48.97;26.42;;;0.10;92.30;;;;;;5058272;28;20482;-74
2023/02/07 06:01:41;;;;;;;50.78;27.27;;;0.10;92.30;;;;;;5053482;28;20041;-77
2023/02/07 06:04:07;;;;;;;52.95;27.35;;;0.10;92.40;;;;;;5062240;28;20521;-76
2023/02/07 06:06:32;;;;;;;52.33;27.75;;;0.10;92.30;;;;;;5065578;28;20679;-80
2023/02/07 06:08:58;;;;;;;56.90;31.27;;;0.10;92.30;;;;;;5073279;28;20024;-79
2023/02/07 06:11:24;;;;;;;57.60;31.63;;;0.10;92.40;;;;;;5067510;28;20051;-75
2023/02/07 06:13:49;;;;;;;59.90;32.97;;;0.10;92.50;;;;;;5063481;28;20032;-76
2023/02/07 06:16:15;;;;;;;63.33;34.92;;;0.10;92.70;;;;;;5060786;28;20064;-77
2023/02/07 06:18:41;;;;;;;57.88;32.53;;;0.30;92.80;;;;;;5064664;28;20044;-78
2023/02/07 06:21:06;;;;;;;62.47;34.78;;;0.30;92.90;;;;;;5068010;28;20036;-76
2023/02/07 06:23:32;;;;;;;72.13;36.55;;;0.40;92.90;;;;;;5061431;28;20349;-75
2023/02/07 06:25:58;;;;;;;66.85;36.15;;;0.50;93.00;;;;;;5053430;28;20039;-74
2023/02/07 06:28:23;;;;;;;90.25;39.55;;;0.60;92.90;;;;;;5059983;28;20180;-74
2023/02/07 06:30:52;;;;;;;104.53;41.20;;;0.60;92.90;;;;;;5036694;28;20740;-80
2023/02/07 06:33:18;;;;;;;71.85;36.08;;;0.70;92.90;;;;;;5059060;28;20031;-75
2023/02/07 06:35:47;;;;;;;73.47;34.00;;;0.70;92.80;;;;;;5055185;28;20468;-75
2023/02/07 06:38:13;;;;;;;81.25;33.47;;;0.70;92.60;;;;;;5039109;28;20020;-76
2023/02/07 06:40:39;;;;;;;153.23;38.10;;;0.60;92.50;;;;;;5055852;28;20039;-75
2023/02/07 06:43:05;;;;;;;57.03;32.17;;;0.60;92.40;;;;;;5056699;28;20029;-76
2023/02/07 06:45:31;;;;;;;68.75;32.42;;;0.60;92.40;;;;;;5052501;28;20566;-77
2023/02/07 06:47:56;;;;;;;55.42;32.17;;;0.60;92.40;;;;;;5053878;28;20567;-76
2023/02/07 06:50:22;;;;;;;49.38;32.67;;;0.60;92.30;;;;;;5035199;28;20456;-78
2023/02/07 06:52:48;;;;;;;53.05;34.58;;;0.60;92.40;;;;;;5051104;28;20063;-79
2023/02/07 06:55:14;;;;;;;47.50;32.08;;;0.60;92.30;;;;;;5053785;28;20029;-75
2023/02/07 06:57:39;;;;;;;78.15;32.30;;;0.60;92.30;;;;;;5033510;28;20045;-77
2023/02/07 07:00:05;;;;;;;70.72;32.70;;;0.60;92.20;;;;;;5056389;28;20368;-75
2023/02/07 07:02:31;;;;;;;58.67;32.08;;;0.60;92.10;;;;;;5055912;28;20032;-74
2023/02/07 07:04:57;;;;;;;58.08;30.10;;;0.60;92.20;;;;;;5058205;28;20017;-75
2023/02/07 07:07:23;;;;;;;70.43;30.73;;;0.50;92.00;;;;;;5037509;28;20425;-77
2023/02/07 07:09:49;;;;;;;45.47;30.40;;;0.40;92.00;;;;;;5038780;28;20379;-74
2023/02/07 07:12:14;;;;;;;46.03;29.83;;;0.40;92.10;;;;;;5038232;28;20484;-80
2023/02/07 07:14:40;;;;;;;52.08;30.30;;;0.50;92.20;;;;;;5055887;28;20103;-79
2023/02/07 07:17:06;;;;;;;53.03;29.35;;;0.50;92.10;;;;;;5039655;28;20457;-76
2023/02/07 07:19:31;;;;;;;45.28;28.33;;;0.50;92.00;;;;;;5058347;28;20032;-73
2023/02/07 07:21:58;;;;;;;68.43;31.67;;;0.40;92.00;;;;;;5062848;28;20050;-74
2023/02/07 07:24:24;;;;;;;65.15;32.08;;;0.50;92.00;;;;;;5063017;28;20019;-76
2023/02/07 07:26:50;;;;;;;50.92;31.92;;;0.50;92.10;;;;;;5062220;28;20068;-77
2023/02/07 07:29:17;;;;;;;61.22;30.50;;;0.60;92.20;;;;;;5062754;28;20080;-76
2023/02/07 07:31:43;;;;;;;56.58;30.15;;;0.60;92.20;;;;;;5060095;28;20028;-77
2023/02/07 07:34:08;;;;;;;44.45;29.17;;;0.60;92.10;;;;;;5062697;28;20140;-78
2023/02/07 07:36:34;;;;;;;47.28;32.33;;;0.60;92.00;;;;;;5060666;28;20060;-78
2023/02/07 07:39:00;;;;;;;44.58;29.45;;;0.60;92.10;;;;;;5058305;28;20040;-76
2023/02/07 07:41:25;;;;;;;46.38;31.13;;;0.70;92.00;;;;;;5058118;28;20060;-81
2023/02/07 07:43:51;;;;;;;69.75;32.10;;;0.70;91.90;;;;;;5061099;28;20098;-78
2023/02/07 07:46:17;;;;;;;45.65;29.17;;;0.70;91.90;;;;;;5062330;28;20478;-76
2023/02/07 07:48:42;;;;;;;49.55;30.50;;;0.70;91.80;;;;;;5058471;28;20242;-74
2023/02/07 07:51:08;;;;;;;45.88;29.25;;;0.70;91.80;;;;;;5056788;28;20109;-73
2023/02/07 07:53:34;;;;;;;69.60;29.42;;;0.70;91.80;;;;;;5062716;28;20178;-73
2023/02/07 07:55:59;;;;;;;42.20;29.38;;;0.70;91.70;;;;;;5059625;28;20475;-74
2023/02/07 07:58:26;;;;;;;56.20;29.48;;;0.70;91.70;;;;;;5062141;28;20364;-82
2023/02/07 08:00:52;;;;;;;57.35;36.92;;;0.70;91.60;;;;;;5041464;28;20017;-76
2023/02/07 08:03:19;;;;;;;53.28;32.90;;;0.80;91.70;;;;;;5059447;28;20044;-74
2023/02/07 08:05:45;;;;;;;55.58;31.05;;;0.90;91.80;;;;;;5060122;28;20040;-73
2023/02/07 08:08:11;;;;;;;54.20;31.85;;;0.90;91.70;;;;;;5059075;28;20069;-75
2023/02/07 08:10:37;;;;;;;54.65;34.22;;;0.90;91.60;;;;;;5060344;28;20029;-74
2023/02/07 08:13:03;;;;;;;73.60;51.80;;;1.00;91.70;;;;;;5042477;28;20025;-78
2023/02/07 08:15:30;;;;;;;48.72;29.88;;;1.10;91.50;;;;;;5054842;28;20029;-74
2023/02/07 08:17:55;;;;;;;55.97;29.85;;;1.10;91.30;;;;;;5062561;28;20400;-74
2023/02/07 08:20:21;;;;;;;40.45;26.60;;;1.10;91.10;;;;;;5061084;28;20041;-75
2023/02/07 08:22:47;;;;;;;42.80;26.92;;;1.00;90.70;;;;;;5060622;28;20119;-73
2023/02/07 08:25:13;;;;;;;40.60;27.35;;;1.00;90.60;;;;;;5059688;28;20025;-75
2023/02/07 08:27:39;;;;;;;82.07;31.00;;;1.00;90.60;;;;;;5058082;28;20094;-73
2023/02/07 08:30:07;;;;;;;38.13;25.67;;;1.00;90.50;;;;;;5040525;28;20012;-75
2023/02/07 08:32:33;;;;;;;83.03;29.80;;;1.00;90.50;;;;;;5058455;28;20132;-74
2023/02/07 08:34:58;;;;;;;42.20;26.98;;;1.10;90.60;;;;;;5060137;28;20212;-76
2023/02/07 08:37:24;;;;;;;51.15;32.40;;;1.00;90.20;;;;;;5060685;28;20032;-77
2023/02/07 08:39:51;;;;;;;53.80;30.58;;;0.90;90.20;;;;;;5058058;28;20032;-77
2023/02/07 08:42:21;;;;;;;50.63;29.65;;;0.80;89.90;;;;;;5057980;28;20056;-77
2023/02/07 08:44:47;;;;;;;41.70;27.23;;;0.90;90.30;;;;;;5059393;28;20113;-74
2023/02/07 08:47:15;;;;;;;44.30;27.10;;;0.90;90.20;;;;;;5056763;28;20044;-76
2023/02/07 08:49:41;;;;;;;42.85;26.65;;;1.00;90.20;;;;;;5041286;28;20037;-76
2023/02/07 08:52:07;;;;;;;61.72;27.67;;;1.10;90.50;;;;;;5059036;28;20029;-77
2023/02/07 08:54:33;;;;;;;61.75;29.85;;;1.10;89.90;;;;;;5040443;28;20167;-75
2023/02/07 08:56:59;;;;;;;47.70;29.55;;;1.10;89.80;;;;;;5058246;28;20033;-76
2023/02/07 08:59:25;;;;;;;75.38;34.55;;;0.90;89.60;;;;;;5060141;28;20161;-77
2023/02/07 09:01:51;;;;;;;106.63;36.92;;;0.90;89.70;;;;;;5057226;28;20732;-75
2023/02/07 09:04:16;;;;;;;58.15;36.00;;;0.80;89.40;;;;;;5060227;28;20082;-75
2023/02/07 09:06:42;;;;;;;86.55;34.97;;;0.90;89.90;;;;;;5056424;28;20031;-77
2023/02/07 09:09:09;;;;;;;72.05;30.88;;;0.70;89.70;;;;;;5057913;28;20025;-75
2023/02/07 09:11:36;;;;;;;83.75;29.88;;;0.60;89.70;;;;;;5059197;28;20028;-75
2023/02/07 09:14:02;;;;;;;55.55;29.08;;;0.40;90.00;;;;;;5057857;28;20208;-75
2023/02/07 09:16:27;;;;;;;48.20;29.75;;;0.40;90.50;;;;;;5056676;28;20058;-75
2023/02/07 09:18:53;;;;;;;85.00;35.40;;;0.50;91.00;;;;;;5060135;28;20059;-76
2023/02/07 09:21:19;;;;;;;70.53;36.78;;;0.60;91.00;;;;;;5056847;28;20464;-78
2023/02/07 09:23:45;;;;;;;99.95;37.25;;;0.60;91.10;;;;;;5058093;28;20567;-75
2023/02/07 09:26:16;;;;;;;54.78;30.88;;;0.60;90.90;;;;;;5057819;28;20131;-77
2023/02/07 09:28:42;;;;;;;45.45;28.17;;;0.70;91.00;;;;;;5040477;28;20395;-74
2023/02/07 09:31:09;;;;;;;56.38;32.70;;;0.80;91.10;;;;;;5037054;28;20041;-77
2023/02/07 09:33:35;;;;;;;69.28;31.98;;;1.10;91.30;;;;;;5056972;28;20111;-77
2023/02/07 09:36:01;;;;;;;53.70;31.65;;;1.00;90.60;;;;;;5055974;28;20043;-75
2023/02/07 09:38:27;;;;;;;47.17;29.00;;;1.00;90.40;;;;;;5042342;28;20074;-74
2023/02/07 09:40:53;;;;;;;73.45;32.90;;;1.00;90.30;;;;;;5040280;28;20089;-74
2023/02/07 09:43:58;;;;;;;67.57;34.25;;;0.90;90.40;;;;;;5057559;28;20260;-77
2023/02/07 09:46:33;;;;;;;43.92;28.00;;;1.00;90.50;;;;;;5057786;28;20029;-76
2023/02/07 09:49:10;;;;;;;42.17;27.98;;;1.40;91.00;;;;;;5055230;28;20724;-77
2023/02/07 09:51:37;;;;;;;84.43;29.48;;;1.60;91.00;;;;;;5055535;28;20033;-77
2023/02/07 09:54:16;;;;;;;62.30;25.90;;;1.40;89.60;;;;;;5058674;28;20033;-78
2023/02/07 09:56:42;;;;;;;38.03;24.73;;;1.00;88.30;;;;;;5038870;28;20033;-76
2023/02/07 09:59:37;;;;;;;48.65;27.67;;;1.00;89.40;;;;;;5059302;28;20044;-76
2023/02/07 10:02:14;;;;;;;43.40;26.92;;;1.10;89.30;;;;;;5055982;28;20063;-78
2023/02/07 10:04:43;;;;;;;45.58;28.50;;;1.30;89.70;;;;;;5057147;28;20090;-75
2023/02/07 10:07:12;;;;;;;58.03;30.60;;;1.60;89.90;;;;;;5059412;28;20051;-76
2023/02/07 10:09:41;;;;;;;50.15;29.02;;;1.80;89.30;;;;;;5057073;28;20021;-75
2023/02/07 10:12:41;;;;;;;75.63;41.17;;;1.60;88.20;;;;;;5057634;28;20515;-75
2023/02/07 10:15:18;;;;;;;63.13;32.42;;;1.70;88.60;;;;;;4986616;28;20671;-75
2023/02/07 10:18:15;;;;;;;59.13;34.55;;;1.90;89.00;;;;;;5057183;28;20041;-78
2023/02/07 10:21:20;;;;;;;50.45;30.23;;;2.10;88.90;;;;;;5039525;28;20059;-75
2023/02/07 10:24:01;;;;;;;48.63;30.63;;;2.10;88.60;;;;;;5034926;28;20037;-78
2023/02/07 10:26:45;;;;;;;47.40;28.63;;;2.30;88.50;;;;;;5055764;28;20131;-76
2023/02/07 10:29:26;;;;;;;45.38;28.02;;;2.30;88.00;;;;;;5039012;28;20475;-76
2023/02/07 10:31:54;;;;;;;50.78;28.40;;;2.20;87.60;;;;;;5038543;28;20510;-74
2023/02/07 10:34:43;;;;;;;45.00;28.83;;;2.20;87.30;;;;;;5054066;28;20032;-76
2023/02/07 10:37:20;;;;;;;41.95;26.30;;;2.20;87.20;;;;;;5056321;28;20043;-77
2023/02/07 10:40:04;;;;;;;44.95;27.65;;;2.10;87.30;;;;;;5039086;28;20056;-78
2023/02/07 10:42:34;;;;;;;43.80;28.58;;;2.40;88.30;;;;;;5054749;28;20044;-76
2023/02/07 10:45:01;;;;;;;41.50;28.33;;;2.60;87.80;;;;;;5056138;28;20033;-76
2023/02/07 10:47:29;;;;;;;42.10;25.73;;;2.90;87.70;;;;;;5056252;28;20032;-76
2023/02/07 10:49:57;;;;;;;36.55;25.00;;;3.00;87.30;;;;;;5053488;28;20052;-78
2023/02/07 10:52:48;;;;;;;34.72;23.27;;;3.10;86.30;;;;;;5056681;28;20051;-74
2023/02/07 10:55:18;;;;;;;40.70;26.52;;;3.00;85.30;;;;;;5055869;28;20113;-76
2023/02/07 10:57:53;;;;;;;34.78;23.70;;;3.10;85.40;;;;;;5056222;28;20526;-73
2023/02/07 11:00:30;;;;;;;35.92;24.35;;;3.00;84.70;;;;;;5061335;28;20027;-75
2023/02/07 11:03:11;;;;;;;35.13;22.92;;;3.00;84.90;;;;;;5055378;28;20127;-74
2023/02/07 11:05:57;;;;;;;33.47;23.27;;;3.00;84.70;;;;;;5055207;28;20025;-73
2023/02/07 11:08:26;;;;;;;37.35;24.48;;;3.00;84.50;;;;;;5041989;28;20032;-74
2023/02/07 11:10:55;;;;;;;31.38;21.48;;;3.00;84.20;;;;;;5055816;28;20119;-75
2023/02/07 11:13:24;;;;;;;31.65;21.88;;;2.80;83.60;;;;;;5057136;28;20028;-77
2023/02/07 11:16:06;;;;;;;33.72;22.70;;;2.70;83.70;;;;;;5055084;28;20040;-76
2023/02/07 11:18:40;;;;;;;33.38;23.80;;;2.90;84.90;;;;;;5055792;28;20115;-74
2023/02/07 11:21:24;;;;;;;32.80;22.83;;;3.10;84.10;;;;;;5057664;28;20036;-76
2023/02/07 11:23:52;;;;;;;36.75;22.80;;;3.40;83.80;;;;;;5053040;28;20033;-75
2023/02/07 11:26:20;;;;;;;36.97;24.35;;;3.70;83.80;;;;;;5040151;28;20048;-75
2023/02/07 11:28:50;;;;;;;35.65;23.52;;;4.10;83.10;;;;;;5036576;28;20143;-75
2023/02/07 11:31:17;;;;;;;33.28;23.00;;;4.40;81.30;;;;;;5049805;28;20049;-76
2023/02/07 11:33:43;;;;;;;32.30;22.65;;;4.80;80.60;;;;;;5049635;28;20052;-75
2023/02/07 11:36:11;;;;;;;34.30;23.63;;;5.10;79.20;;;;;;5033230;28;20144;-74
2023/02/07 11:38:40;;;;;;;33.50;23.23;;;5.00;78.20;;;;;;5049629;28;20029;-76
2023/02/07 11:41:14;;;;;;;34.70;24.23;;;5.10;78.40;;;;;;5049664;28;20044;-75
2023/02/07 11:43:50;;;;;;;;;;;4.30;78.10;;;;;;5051625;28;20056;-80
2023/02/07 11:46:15;;;;;;;36.97;24.55;;;4.20;79.80;;;;;;5033671;28;20322;-78
2023/02/07 11:48:46;;;;;;;38.17;25.35;;;4.00;80.70;;;;;;5053243;28;20052;-76
2023/02/07 11:51:16;;;;;;;36.38;24.42;;;4.20;81.40;;;;;;5031694;28;20461;-77
2023/02/07 11:53:48;;;;;;;39.00;26.00;;;4.10;80.70;;;;;;5050052;28;20013;-77
2023/02/07 11:56:25;;;;;;;38.20;25.98;;;3.60;80.90;;;;;;5048667;28;20078;-77
2023/02/07 11:58:53;;;;;;;36.38;24.27;;;3.60;82.80;;;;;;5051112;28;20051;-77
2023/02/07 12:01:30;;;;;;;41.20;25.38;;;3.60;82.50;;;;;;5033829;28;20040;-81
2023/02/07 12:04:00;;;;;;;41.63;27.48;;;3.50;83.10;;;;;;5053045;28;20029;-75
2023/02/07 12:06:52;;;;;;;42.70;26.83;;;3.40;83.50;;;;;;5055465;28;20032;-82
2023/02/07 12:09:44;;;;;;;39.00;26.70;;;3.50;83.80;;;;;;5060076;28;20036;-75
2023/02/07 12:12:18;;;;;;;38.78;25.70;;;3.60;83.70;;;;;;5058415;28;20100;-78
2023/02/07 12:14:57;;;;;;;37.97;23.50;;;3.70;83.00;;;;;;5060381;28;20456;-78
2023/02/07 12:17:29;;;;;;;37.10;23.35;;;3.70;82.30;;;;;;5057937;28;20127;-77
2023/02/07 12:20:04;;;;;;;36.88;22.55;;;3.70;82.10;;;;;;5041293;28;20013;-74
2023/02/07 12:22:53;;;;;;;37.35;24.40;;;3.70;81.70;;;;;;5036740;28;20458;-77
2023/02/07 12:25:26;;;;;;;32.75;22.20;;;3.60;82.40;;;;;;5060405;28;20028;-75
2023/02/07 12:27:57;;;;;;;38.00;23.42;;;3.30;81.80;;;;;;5058940;28;20063;-74
2023/02/07 12:30:30;;;;;;;37.05;24.40;;;3.20;83.50;;;;;;5060986;28;20036;-74
2023/02/07 12:33:11;;;;;;;33.97;24.40;;;3.40;83.50;;;;;;5058089;28;20442;-78
2023/02/07 12:35:59;;;;;;;37.42;24.13;;;3.40;83.80;;;;;;5057378;28;20028;-76
2023/02/07 12:38:36;;;;;;;38.22;24.05;;;3.60;83.40;;;;;;5060205;28;20288;-74
2023/02/07 12:41:23;;;;;;;36.28;24.13;;;3.70;82.70;;;;;;5055366;28;20121;-77
2023/02/07 12:44:26;;;;;;;39.42;25.63;;;3.70;83.10;;;;;;5064064;28;20020;-76
2023/02/07 12:47:18;;;;;;;38.10;24.83;;;3.70;83.20;;;;;;5041627;28;20313;-75
2023/02/07 12:50:22;;;;;;;35.13;23.40;;;3.80;83.10;;;;;;5062981;28;20016;-76
2023/02/07 12:53:12;;;;;;;38.20;21.98;;;4.20;83.20;;;;;;5050868;28;20154;-78
2023/02/07 12:55:58;;;;;;;36.92;22.25;;;4.20;81.60;;;;;;5055589;28;20032;-75